createdAt,value
2022-12-28T10:19:32.261Z,96855.75
2022-12-28T10:20:34.169Z,96863.88
2022-12-28T10:21:36.096Z,96864.34
2022-12-28T10:22:44.852Z,96861.25
2022-12-28T10:25:17.207Z,96858.47
2022-12-28T10:26:20.343Z,96866.91
2022-12-28T10:27:24.556Z,96859.13
2022-12-28T10:28:31.544Z,96860.16
2022-12-28T10:29:33.681Z,96853.19
2022-12-28T10:30:48.139Z,96841.53
2022-12-28T10:32:17.651Z,96837.91
2022-12-28T10:33:19.642Z,96851.84
2022-12-28T10:34:22.532Z,96845.13
2022-12-28T10:35:37.416Z,96843.94
2022-12-28T10:36:40.151Z,96841.28
2022-12-28T10:37:44.541Z,96837.59
2022-12-28T10:38:54.014Z,96837.41
2022-12-28T10:39:59.942Z,96848.38
2022-12-28T10:41:09.655Z,96833.19
2022-12-28T10:42:21.168Z,96836.13
2022-12-28T10:43:22.702Z,96838.13
2022-12-28T10:44:40.044Z,96832.56
2022-12-28T10:45:48.114Z,96834.50
2022-12-28T10:47:01.487Z,96846.34
2022-12-28T10:48:10.008Z,96822.13
2022-12-28T10:49:15.875Z,96822.66
2022-12-28T10:50:56.853Z,96820.13
2022-12-28T10:52:20.605Z,96816.56
2022-12-28T10:53:28.195Z,96819.72
2022-12-28T10:54:34.501Z,96811.91
2022-12-28T10:55:36.606Z,96811.69
2022-12-28T10:56:49.445Z,96828.41
2022-12-28T10:58:27.473Z,96818.06
2022-12-28T10:59:15.259Z,96813.47
2022-12-28T11:00:23.599Z,96813.94
2022-12-28T11:01:28.451Z,96816.91
2022-12-28T11:02:32.566Z,96799.06
2022-12-28T11:03:37.182Z,96808.19
2022-12-28T11:04:52.527Z,96809.97
2022-12-28T11:06:11.983Z,96795.63
2022-12-28T11:07:30.364Z,96794.81
2022-12-28T11:08:31.770Z,96809.13
2022-12-28T11:09:35.255Z,96799.97
2022-12-28T11:10:37.462Z,96809.31
2022-12-28T11:11:39.363Z,96813.97
2022-12-28T11:12:47.643Z,96801.75
2022-12-28T11:13:55.697Z,96802.56
2022-12-28T11:14:57.209Z,96803.75
2022-12-28T11:15:59.420Z,96799.03
2022-12-28T11:17:15.810Z,96792.28
2022-12-28T11:28:31.956Z,96775.34
2022-12-28T11:29:33.358Z,96776.47
2022-12-28T11:30:34.753Z,96776.63
2022-12-28T11:31:57.077Z,96770.81
2022-12-28T11:33:01.386Z,96769.44
2022-12-28T11:34:06.449Z,96759.22
2022-12-28T11:35:15.621Z,96756.06
2022-12-28T11:36:20.896Z,96754.66
2022-12-28T11:37:22.347Z,96760.31
2022-12-28T11:38:37.099Z,96764.78
2022-12-28T11:39:47.064Z,96767.28
2022-12-28T11:40:52.476Z,96756.16
2022-12-28T11:43:28.787Z,96759.50
2022-12-28T11:44:30.199Z,96756.56
2022-12-28T11:45:51.806Z,96741.72
2022-12-28T11:47:06.002Z,96756.47
2022-12-28T11:48:41.343Z,96754.19
2022-12-28T11:49:47.847Z,96740.34
2022-12-28T11:50:53.242Z,96750.34
2022-12-28T11:52:16.237Z,96748.16
2022-12-28T11:53:46.545Z,96742.03
2022-12-28T11:54:54.312Z,96738.50
2022-12-28T11:56:09.442Z,96750.03
2022-12-28T11:57:11.174Z,96741.38
2022-12-28T11:58:44.221Z,96738.44
2022-12-28T11:59:45.655Z,96738.22
2022-12-28T12:00:48.255Z,96741.59
2022-12-28T12:01:51.652Z,96748.06
2022-12-28T12:03:00.821Z,96736.56
2022-12-28T12:04:05.402Z,96741.84
2022-12-28T12:05:37.654Z,96736.06
2022-12-28T12:06:48.649Z,96742.25
2022-12-28T12:07:50.153Z,96736.53
2022-12-28T12:08:52.050Z,96729.16
2022-12-28T12:10:21.187Z,96728.41
2022-12-28T12:14:45.163Z,96718.91
2022-12-28T12:15:47.741Z,96713.75
2022-12-28T12:16:59.875Z,96710.41
2022-12-28T12:18:07.430Z,96707.97
2022-12-28T12:19:22.396Z,96711.50
2022-12-28T12:20:23.744Z,96701.53
2022-12-28T12:21:30.167Z,96705.59
2022-12-28T12:22:38.227Z,96711.91
2022-12-28T12:23:42.669Z,96705.81
2022-12-28T12:25:07.805Z,96718.72
2022-12-28T12:26:33.580Z,96690.72
2022-12-28T12:27:41.496Z,96686.75
2022-12-28T12:28:52.662Z,96696.47
2022-12-28T12:30:01.817Z,96694.66
2022-12-28T12:31:07.381Z,96686.09
2022-12-28T12:32:38.026Z,96686.44
2022-12-28T12:33:45.253Z,96689.03
2022-12-28T12:34:51.803Z,96685.22
2022-12-28T12:36:08.347Z,96690.63
2022-12-28T12:37:31.292Z,96684.31
2022-12-28T12:38:57.651Z,96689.41
2022-12-28T12:40:07.504Z,96693.50
2022-12-28T12:41:08.927Z,96688.50
2022-12-28T12:42:25.518Z,96693.91
2022-12-28T12:43:29.419Z,96690.19
2022-12-28T12:45:01.559Z,96688.97
2022-12-28T12:46:24.408Z,96687.88
2022-12-28T12:47:58.137Z,96683.75
2022-12-28T12:49:17.880Z,96680.09
2022-12-28T12:50:53.445Z,96673.97
2022-12-28T12:52:22.762Z,96684.44
